Time;durP1;ratioP1;P1;durP2;ratioP2;P2;SDS_P1;SDS_P2;PMS_P1;PMS_P2;Temp;Humidity;BMP_temperature;BMP_pressure;BME280_temperature;BME280_humidity;BME280_pressure;Samples;Min_cycle;Max_cycle;Signal;HPM_P1;HPM_P2
2022/07/31 00:01:32;;;;;;;6.00;2.30;;;22.40;73.50;;;;;;4980753;28;20026;-81
2022/07/31 00:03:58;;;;;;;3.28;2.08;;;22.40;73.90;;;;;;4967837;28;20026;-81
2022/07/31 00:06:24;;;;;;;6.75;3.63;;;22.30;74.10;;;;;;4981307;28;20037;-80
2022/07/31 00:08:50;;;;;;;4.07;1.95;;;;;;;;;;4961035;28;20138;-80
2022/07/31 00:11:16;;;;;;;8.75;2.17;;;;;;;;;;4964787;28;20026;-77
2022/07/31 00:13:42;;;;;;;3.30;2.42;;;22.30;73.80;;;;;;4996425;28;20018;-76
2022/07/31 00:16:08;;;;;;;3.88;2.78;;;22.30;74.30;;;;;;4981810;28;20031;-79
2022/07/31 00:18:34;;;;;;;5.40;1.80;;;22.20;75.00;;;;;;4976064;28;20026;-81
2022/07/31 00:21:01;;;;;;;3.00;2.20;;;22.10;75.10;;;;;;4979831;28;20027;-80
2022/07/31 00:23:28;;;;;;;5.05;2.00;;;22.10;75.50;;;;;;4980875;28;20031;-78
2022/07/31 00:25:54;;;;;;;3.50;2.13;;;22.10;75.70;;;;;;4979432;28;20046;-78
2022/07/31 00:28:19;;;;;;;6.03;2.13;;;22.10;76.10;;;;;;4964674;28;20038;-79
2022/07/31 00:30:45;;;;;;;7.40;2.17;;;22.00;76.40;;;;;;4967817;28;20023;-81
2022/07/31 00:33:11;;;;;;;3.95;2.00;;;22.00;76.50;;;;;;4980647;28;20031;-80
2022/07/31 00:35:37;;;;;;;2.92;1.80;;;22.00;76.70;;;;;;4981845;28;20058;-80
2022/07/31 00:38:03;;;;;;;3.47;1.95;;;22.00;76.60;;;;;;4964249;28;20046;-80
2022/07/31 00:40:29;;;;;;;3.90;2.00;;;21.90;75.80;;;;;;4954835;28;20459;-80
2022/07/31 00:42:54;;;;;;;4.55;1.88;;;21.90;75.70;;;;;;4972580;28;20035;-81
2022/07/31 00:45:20;;;;;;;11.10;1.60;;;21.90;76.10;;;;;;4968113;28;20031;-78
2022/07/31 00:47:46;;;;;;;3.05;2.03;;;21.80;76.20;;;;;;4977268;28;20060;-79
2022/07/31 00:50:12;;;;;;;5.32;1.85;;;21.80;76.30;;;;;;4956752;28;20023;-79
2022/07/31 00:52:38;;;;;;;6.57;2.78;;;21.70;76.40;;;;;;4961895;28;20113;-81
2022/07/31 00:55:05;;;;;;;3.15;1.77;;;21.70;76.20;;;;;;4953521;28;20033;-80
2022/07/31 00:57:30;;;;;;;4.22;2.20;;;21.60;76.70;;;;;;4976742;28;20031;-79
2022/07/31 00:59:56;;;;;;;5.00;2.05;;;21.60;76.80;;;;;;4977463;28;20058;-78
2022/07/31 01:02:22;;;;;;;6.28;2.05;;;21.60;76.90;;;;;;4961464;28;20030;-77
2022/07/31 01:04:48;;;;;;;5.15;2.30;;;21.60;76.80;;;;;;4983887;28;20038;-76
2022/07/31 01:07:14;;;;;;;3.17;1.83;;;21.50;77.10;;;;;;4983937;28;20037;-80
2022/07/31 01:09:41;;;;;;;7.22;4.32;;;21.50;77.90;;;;;;4972739;28;20046;-79
2022/07/31 01:12:26;;;;;;;3.22;2.10;;;21.50;77.30;;;;;;4960342;28;20031;-78
2022/07/31 01:14:55;;;;;;;4.13;2.00;;;21.40;77.70;;;;;;4972876;28;20349;-80
2022/07/31 01:17:23;;;;;;;4.43;2.42;;;21.40;78.50;;;;;;4972720;28;20460;-79
2022/07/31 01:19:50;;;;;;;4.05;2.08;;;;;;;;;;4956875;28;20097;-77
2022/07/31 01:22:46;;;;;;;3.53;1.83;;;21.30;77.70;;;;;;4973542;28;20035;-79
2022/07/31 01:25:36;;;;;;;3.38;2.10;;;21.20;77.80;;;;;;4971270;28;20031;-80
2022/07/31 01:28:23;;;;;;;3.40;2.08;;;21.20;78.50;;;;;;4978189;28;20030;-79
2022/07/31 01:31:04;;;;;;;3.03;1.80;;;21.20;78.50;;;;;;4977298;28;20027;-80
2022/07/31 01:33:40;;;;;;;3.60;2.00;;;21.10;78.50;;;;;;4958109;28;20053;-80
2022/07/31 01:36:10;;;;;;;3.30;1.85;;;21.10;78.20;;;;;;4977030;28;20026;-80
2022/07/31 01:38:41;;;;;;;6.03;2.15;;;21.10;78.90;;;;;;4976233;28;20037;-79
2022/07/31 01:41:11;;;;;;;5.72;2.13;;;21.00;79.10;;;;;;4965041;28;20034;-80
2022/07/31 01:43:38;;;;;;;;;;;21.00;79.30;;;;;;4962083;28;20390;-80
2022/07/31 01:46:06;;;;;;;2.63;2.00;;;21.00;79.40;;;;;;4964614;28;19914;-79
2022/07/31 01:48:34;;;;;;;3.00;1.73;;;20.90;79.60;;;;;;4963051;28;20038;-78
2022/07/31 01:51:02;;;;;;;3.55;1.80;;;20.90;79.90;;;;;;4966810;28;20403;-79
2022/07/31 01:53:37;;;;;;;3.33;1.88;;;20.80;80.20;;;;;;4984057;28;20011;-78
2022/07/31 01:56:05;;;;;;;3.22;1.92;;;20.80;80.70;;;;;;4978323;28;20119;-76
2022/07/31 01:58:37;;;;;;;5.03;1.80;;;20.70;80.90;;;;;;4995087;28;20023;-76
2022/07/31 02:01:05;;;;;;;3.95;1.80;;;20.70;81.40;;;;;;4994755;28;20019;-77
2022/07/31 02:03:32;;;;;;;3.65;1.85;;;20.70;81.50;;;;;;4989926;28;20027;-77
2022/07/31 02:06:00;;;;;;;3.40;2.00;;;20.70;81.70;;;;;;4975367;28;20018;-77
2022/07/31 02:08:27;;;;;;;4.03;1.90;;;20.70;82.10;;;;;;4995502;28;20102;-77
2022/07/31 02:10:55;;;;;;;3.30;1.60;;;20.60;82.30;;;;;;4996317;28;20034;-77
2022/07/31 02:13:21;;;;;;;4.15;1.90;;;20.60;82.70;;;;;;4979886;28;20050;-78
2022/07/31 02:15:49;;;;;;;3.42;1.80;;;20.50;82.80;;;;;;4988950;28;20027;-77
2022/07/31 02:18:17;;;;;;;3.35;1.98;;;20.50;83.20;;;;;;4989991;28;20019;-79
2022/07/31 02:20:45;;;;;;;3.13;1.70;;;20.40;83.70;;;;;;4989707;28;20029;-78
2022/07/31 02:23:12;;;;;;;3.70;2.03;;;20.40;83.80;;;;;;4969103;28;20054;-78
2022/07/31 02:25:39;;;;;;;3.15;1.70;;;20.40;84.00;;;;;;4983993;28;20034;-79
2022/07/31 02:28:12;;;;;;;4.20;2.00;;;20.40;84.40;;;;;;4971687;28;20065;-77
2022/07/31 02:30:43;;;;;;;4.72;2.13;;;20.30;85.00;;;;;;4983398;28;20031;-78
2022/07/31 02:33:13;;;;;;;3.78;2.42;;;20.30;84.90;;;;;;4975334;28;20027;-78
2022/07/31 02:35:41;;;;;;;3.40;1.95;;;20.20;86.00;;;;;;4994441;28;20037;-80
2022/07/31 02:38:08;;;;;;;3.75;2.08;;;20.20;85.50;;;;;;4989086;28;20038;-80
2022/07/31 02:40:36;;;;;;;5.68;2.30;;;20.20;85.90;;;;;;4958758;28;20155;-81
2022/07/31 02:43:02;;;;;;;4.68;1.83;;;19.90;86.40;;;;;;4977018;28;20804;-79
2022/07/31 02:45:28;;;;;;;3.55;2.15;;;19.90;86.80;;;;;;4970886;28;20567;-80
2022/07/31 02:47:54;;;;;;;3.17;1.92;;;19.90;87.40;;;;;;4970714;28;20055;-79
2022/07/31 02:50:20;;;;;;;3.65;2.22;;;19.80;87.50;;;;;;4958715;28;20484;-79
2022/07/31 02:52:47;;;;;;;5.38;2.53;;;19.90;88.30;;;;;;4955100;28;20026;-79
2022/07/31 02:55:13;;;;;;;4.45;2.00;;;19.90;88.20;;;;;;4951758;28;20027;-79
2022/07/31 02:57:39;;;;;;;3.15;2.05;;;19.90;87.70;;;;;;4977035;28;20039;-79
2022/07/31 03:00:22;;;;;;;3.50;2.20;;;19.90;87.90;;;;;;4958867;28;20129;-78
2022/07/31 03:02:54;;;;;;;6.95;2.72;;;19.90;87.10;;;;;;4962191;28;20186;-77
2022/07/31 03:05:20;;;;;;;6.28;2.50;;;19.90;86.60;;;;;;4962522;28;20049;-78
2022/07/31 03:07:46;;;;;;;5.88;2.40;;;19.90;86.50;;;;;;4958281;28;20046;-78
2022/07/31 03:10:12;;;;;;;5.35;2.35;;;19.90;86.70;;;;;;4976299;28;20138;-76
2022/07/31 03:12:41;;;;;;;4.00;2.50;;;19.90;86.70;;;;;;4988832;28;20431;-77
2022/07/31 03:15:10;;;;;;;4.13;1.85;;;19.90;87.10;;;;;;4989982;28;20018;-77
2022/07/31 03:17:40;;;;;;;4.28;2.50;;;19.90;87.70;;;;;;4982648;28;20362;-80
2022/07/31 03:20:07;;;;;;;5.85;2.33;;;19.90;88.20;;;;;;4980141;28;20136;-78
2022/07/31 03:22:34;;;;;;;4.50;2.40;;;19.90;88.40;;;;;;4963428;28;20066;-80
2022/07/31 03:25:01;;;;;;;5.13;2.03;;;19.80;88.40;;;;;;4954511;28;20026;-79
2022/07/31 03:27:27;;;;;;;5.20;2.70;;;19.70;88.70;;;;;;4976233;28;20046;-81
2022/07/31 03:29:56;;;;;;;5.57;2.45;;;19.80;89.10;;;;;;4963021;28;20038;-79
2022/07/31 03:32:22;;;;;;;4.55;2.30;;;19.60;89.40;;;;;;4981118;28;20475;-78
2022/07/31 03:34:48;;;;;;;5.03;2.38;;;19.60;89.60;;;;;;4954509;28;20027;-78
2022/07/31 03:37:14;;;;;;;3.60;2.40;;;19.60;89.60;;;;;;4960707;28;20030;-80
2022/07/31 03:39:40;;;;;;;5.47;2.10;;;19.60;89.40;;;;;;4976068;28;20062;-80
2022/07/31 03:42:10;;;;;;;3.63;2.35;;;19.60;89.60;;;;;;4960164;28;20559;-80
2022/07/31 03:44:38;;;;;;;3.72;2.20;;;19.60;89.60;;;;;;4977235;28;20027;-77
2022/07/31 03:47:04;;;;;;;6.15;2.80;;;19.60;89.80;;;;;;4968372;28;20130;-79
2022/07/31 03:49:31;;;;;;;3.42;1.92;;;19.60;89.80;;;;;;4960861;28;20027;-78
2022/07/31 03:51:57;;;;;;;5.40;2.58;;;19.60;89.90;;;;;;4968066;28;20050;-77
2022/07/31 03:54:23;;;;;;;5.90;2.88;;;19.60;89.90;;;;;;4969695;28;20030;-77
2022/07/31 03:56:51;;;;;;;3.35;2.45;;;19.60;90.00;;;;;;4974261;28;20070;-80
2022/07/31 03:59:18;;;;;;;4.75;2.50;;;19.60;90.10;;;;;;4956138;28;20073;-79
2022/07/31 04:01:44;;;;;;;4.20;2.53;;;19.60;90.10;;;;;;4961786;28;20088;-78
2022/07/31 04:04:10;;;;;;;4.78;2.45;;;19.50;90.20;;;;;;4963691;28;20090;-81
2022/07/31 04:06:36;;;;;;;6.35;2.53;;;19.50;90.30;;;;;;4961282;28;20263;-80
2022/07/31 04:09:02;;;;;;;4.85;2.22;;;19.50;90.50;;;;;;4958941;28;20109;-80
2022/07/31 04:11:28;;;;;;;3.90;2.33;;;19.40;90.60;;;;;;4958755;28;20038;-79
2022/07/31 04:13:54;;;;;;;3.90;2.60;;;19.40;90.50;;;;;;4964456;28;20030;-78
2022/07/31 04:16:20;;;;;;;4.93;2.40;;;19.30;91.00;;;;;;4977828;28;20057;-79
2022/07/31 04:18:46;;;;;;;3.83;2.40;;;19.30;90.90;;;;;;4979701;28;20037;-76
2022/07/31 04:21:12;;;;;;;4.22;2.20;;;19.30;91.00;;;;;;4981141;28;20049;-77
2022/07/31 04:23:38;;;;;;;3.90;2.33;;;19.30;90.80;;;;;;4964622;28;20038;-78
2022/07/31 04:26:03;;;;;;;3.47;2.13;;;19.30;91.00;;;;;;4972644;28;20034;-76
2022/07/31 04:28:29;;;;;;;5.20;2.80;;;19.30;91.10;;;;;;4969491;28;20471;-80
2022/07/31 04:30:55;;;;;;;4.78;2.20;;;19.30;91.20;;;;;;4960831;28;20035;-78
2022/07/31 04:33:21;;;;;;;6.22;2.60;;;19.30;91.30;;;;;;4960148;28;20023;-79
2022/07/31 04:35:47;;;;;;;5.72;2.60;;;19.20;91.40;;;;;;4972685;28;20511;-78
2022/07/31 04:38:15;;;;;;;5.35;2.40;;;19.20;91.70;;;;;;4962199;28;20026;-79
2022/07/31 04:40:41;;;;;;;5.22;2.20;;;19.10;91.90;;;;;;4969807;28;20388;-79
2022/07/31 04:43:07;;;;;;;3.85;2.65;;;19.10;92.10;;;;;;4968913;28;20042;-79
2022/07/31 04:45:33;;;;;;;5.03;2.40;;;19.10;92.20;;;;;;4953664;28;20039;-81
2022/07/31 04:47:59;;;;;;;4.45;2.47;;;19.20;92.20;;;;;;4952296;28;20039;-80
2022/07/31 04:50:24;;;;;;;8.95;5.10;;;19.20;92.50;;;;;;4950845;28;20030;-80
2022/07/31 04:52:50;;;;;;;7.30;2.58;;;19.30;92.30;;;;;;4958434;28;20074;-81
2022/07/31 04:55:16;;;;;;;4.80;2.38;;;19.30;92.30;;;;;;4967130;28;20455;-80
2022/07/31 04:57:41;;;;;;;6.40;3.05;;;19.20;92.80;;;;;;4955347;28;20050;-78
2022/07/31 05:00:09;;;;;;;6.97;2.55;;;19.10;92.90;;;;;;4951359;28;20084;-80
2022/07/31 05:02:36;;;;;;;4.38;2.60;;;19.20;93.10;;;;;;4966739;28;20114;-80
2022/07/31 05:05:02;;;;;;;5.93;2.50;;;19.10;93.20;;;;;;4971178;28;20080;-79
2022/07/31 05:07:28;;;;;;;4.93;2.47;;;19.20;93.10;;;;;;4975265;28;20053;-79
2022/07/31 05:09:54;;;;;;;4.53;2.25;;;19.20;93.20;;;;;;4955606;28;20030;-79
2022/07/31 05:12:19;;;;;;;3.80;1.98;;;19.20;93.20;;;;;;4977661;28;20029;-80
2022/07/31 05:14:45;;;;;;;4.22;2.47;;;19.30;93.00;;;;;;4967334;28;20038;-78
2022/07/31 05:17:11;;;;;;;5.68;2.30;;;19.30;92.80;;;;;;4958555;28;20379;-77
2022/07/31 05:19:37;;;;;;;3.45;2.28;;;19.40;92.90;;;;;;4962010;28;20038;-78
2022/07/31 05:22:03;;;;;;;4.75;2.30;;;19.50;92.60;;;;;;4954884;28;20031;-78
2022/07/31 05:24:30;;;;;;;3.55;2.00;;;19.50;92.70;;;;;;4964869;28;20067;-79
2022/07/31 05:26:56;;;;;;;4.30;2.20;;;19.40;92.60;;;;;;4957439;28;20031;-79
2022/07/31 05:29:21;;;;;;;6.95;2.30;;;19.40;92.80;;;;;;4976391;28;20093;-80
2022/07/31 05:31:47;;;;;;;4.38;2.05;;;19.50;92.60;;;;;;4960878;28;20089;-80
2022/07/31 05:34:13;;;;;;;5.30;2.05;;;19.50;92.80;;;;;;4971086;28;20143;-80
2022/07/31 05:36:39;;;;;;;6.30;2.05;;;19.70;92.40;;;;;;4970485;28;20054;-78
2022/07/31 05:39:05;;;;;;;11.73;4.80;;;19.70;92.50;;;;;;4955733;28;20791;-78
2022/07/31 05:41:32;;;;;;;4.22;1.95;;;19.80;92.30;;;;;;4955445;28;20230;-78
2022/07/31 05:46:26;;;;;;;3.45;2.15;;;;;;;;;;5022933;28;20046;-83
2022/07/31 05:48:53;;;;;;;5.63;2.17;;;;;;;;;;5015549;28;20026;-87
2022/07/31 05:51:19;;;;;;;5.43;2.30;;;;;;;;;;4998334;28;20033;-83
2022/07/31 05:53:45;;;;;;;5.30;2.13;;;;;;;;;;5015025;28;20045;-81
2022/07/31 05:56:11;;;;;;;2.78;1.88;;;;;;;;;;5019307;28;20022;-82
2022/07/31 05:58:39;;;;;;;2.75;1.77;;;;;;;;;;5022231;28;20057;-84
2022/07/31 06:01:05;;;;;;;7.00;4.93;;;21.50;87.40;;;;;;5020755;28;20026;-81
2022/07/31 06:03:34;;;;;;;3.88;2.10;;;;;;;;;;5025501;28;20030;-85
2022/07/31 06:06:02;;;;;;;3.27;1.97;;;22.70;84.60;;;;;;5001006;28;20030;-86
2022/07/31 06:08:28;;;;;;;3.10;1.90;;;22.10;84.70;;;;;;5002808;28;20057;-84
2022/07/31 06:10:54;;;;;;;4.70;2.00;;;;;;;;;;5014130;28;20041;-82
2022/07/31 06:13:29;;;;;;;3.97;1.80;;;21.80;84.80;;;;;;5002587;28;20034;-83
2022/07/31 06:15:55;;;;;;;5.60;1.70;;;;;;;;;;5019481;28;20032;-82
2022/07/31 06:18:21;;;;;;;4.82;1.92;;;;;;;;;;5023645;28;20034;-81
2022/07/31 06:20:47;;;;;;;5.85;1.95;;;;;;;;;;5021797;28;20033;-83
2022/07/31 06:23:13;;;;;;;3.90;2.00;;;;;;;;;;5010501;28;20030;-81
2022/07/31 06:25:39;;;;;;;4.03;1.92;;;;;;;;;;5002829;28;20053;-86
2022/07/31 06:28:06;;;;;;;5.30;2.53;;;;;;;;;;5009080;28;20048;-87
2022/07/31 06:30:32;;;;;;;3.20;1.80;;;;;;;;;;5023550;28;20054;-85
2022/07/31 06:32:57;;;;;;;3.03;1.90;;;22.10;83.90;;;;;;5022816;28;20076;-88
2022/07/31 06:35:23;;;;;;;3.55;2.08;;;22.20;84.20;;;;;;5024858;28;20455;-85
2022/07/31 06:37:49;;;;;;;3.42;2.10;;;22.50;83.00;;;;;;5006179;28;20038;-88
2022/07/31 06:40:15;;;;;;;5.28;1.90;;;;;;;;;;5018423;28;20030;-86
2022/07/31 06:42:41;;;;;;;5.70;1.95;;;;;;;;;;5023008;28;20157;-86
2022/07/31 06:45:10;;;;;;;6.15;2.00;;;22.80;81.20;;;;;;5007211;28;20034;-86
2022/07/31 06:47:37;;;;;;;5.00;1.83;;;22.60;82.10;;;;;;5019733;28;20041;-88
2022/07/31 06:50:05;;;;;;;4.78;1.88;;;22.30;83.10;;;;;;5016404;28;20030;-89
2022/07/31 06:52:31;;;;;;;2.80;1.77;;;;;;;;;;4997195;28;20219;-89
2022/07/31 06:54:57;;;;;;;2.10;1.50;;;;;;;;;;5014764;28;20092;-88
2022/07/31 06:57:24;;;;;;;3.88;1.88;;;;;;;;;;5021619;28;20076;-85
2022/07/31 06:59:50;;;;;;;6.38;1.90;;;;;;;;;;5024778;28;20037;-87
2022/07/31 07:02:16;;;;;;;4.63;2.00;;;;;;;;;;5009866;28;20038;-87
2022/07/31 07:04:43;;;;;;;3.78;1.90;;;;;;;;;;5013976;28;20529;-88
2022/07/31 07:07:09;;;;;;;3.97;1.80;;;;;;;;;;5028934;28;20100;-90
2022/07/31 07:09:35;;;;;;;4.78;1.65;;;;;;;;;;5021093;28;20500;-87
2022/07/31 07:12:01;;;;;;;5.43;1.98;;;;;;;;;;5013837;28;20030;-90
2022/07/31 07:14:27;;;;;;;8.15;2.03;;;;;;;;;;4996734;28;20042;-88
2022/07/31 07:16:53;;;;;;;3.42;1.88;;;23.00;82.10;;;;;;4998844;28;20399;-88
2022/07/31 07:19:19;;;;;;;4.03;1.83;;;;;;;;;;5013680;28;20030;-89
2022/07/31 07:21:45;;;;;;;2.10;1.55;;;;;;;;;;5016753;28;20036;-87
2022/07/31 07:24:11;;;;;;;3.72;1.88;;;23.20;81.70;;;;;;5015659;28;20034;-86
2022/07/31 07:26:37;;;;;;;4.20;1.90;;;;;;;;;;5012627;28;20204;-85
2022/07/31 07:29:03;;;;;;;3.55;1.98;;;;;;;;;;5000204;28;20120;-88
2022/07/31 07:31:29;;;;;;;4.35;1.90;;;;;;;;;;5017024;28;20029;-88
2022/07/31 07:33:55;;;;;;;3.75;1.73;;;;;;;;;;5015177;28;20029;-85
2022/07/31 07:36:22;;;;;;;3.65;1.90;;;23.30;81.90;;;;;;5003979;28;20034;-86
2022/07/31 07:38:48;;;;;;;4.30;1.80;;;;;;;;;;5011302;28;20022;-85
2022/07/31 07:41:14;;;;;;;4.30;1.80;;;;;;;;;;4998459;28;20365;-84
2022/07/31 07:43:40;;;;;;;5.10;2.15;;;;;;;;;;5001222;28;20041;-87
2022/07/31 07:46:06;;;;;;;5.57;1.92;;;;;;;;;;5025296;28;20040;-87
2022/07/31 07:48:32;;;;;;;4.05;1.90;;;;;;;;;;5028143;28;20022;-87
2022/07/31 07:50:58;;;;;;;3.60;1.90;;;;;;;;;;5013863;28;20025;-88
2022/07/31 07:53:24;;;;;;;2.70;1.63;;;23.90;80.50;;;;;;5030095;28;20021;-88
2022/07/31 07:56:02;;;;;;;3.22;2.00;;;23.90;81.00;;;;;;5011803;28;20022;-90
2022/07/31 07:58:39;;;;;;;3.05;1.60;;;24.10;82.70;;;;;;5012268;28;20033;-86
2022/07/31 08:01:29;;;;;;;4.90;1.70;;;24.30;83.00;;;;;;5014020;28;20045;-86
2022/07/31 08:05:06;;;;;;;;;;;;;;;;;;;;;
2022/07/31 08:07:56;;;;;;;3.05;2.08;;;24.50;78.60;;;;;;4974249;28;20038;-88
2022/07/31 08:10:22;;;;;;;6.22;2.05;;;;;;;;;;5013645;28;20618;-86
2022/07/31 08:12:49;;;;;;;6.85;2.30;;;24.80;77.90;;;;;;5015425;28;20025;-86
2022/07/31 08:15:15;;;;;;;4.93;1.88;;;;;;;;;;4999746;28;20029;-87
2022/07/31 08:17:40;;;;;;;4.65;2.10;;;24.90;77.10;;;;;;5017059;28;20022;-86
2022/07/31 08:20:06;;;;;;;3.13;1.70;;;24.90;77.10;;;;;;5011946;28;20026;-85
2022/07/31 08:22:33;;;;;;;3.65;1.98;;;25.10;77.00;;;;;;5000076;28;20494;-86
2022/07/31 08:24:58;;;;;;;4.57;1.85;;;25.30;76.30;;;;;;5014641;28;20060;-88
2022/07/31 08:27:24;;;;;;;3.60;2.08;;;25.30;76.50;;;;;;4998582;28;20030;-89
2022/07/31 08:29:56;;;;;;;3.45;2.05;;;25.50;76.70;;;;;;4997741;28;20061;-85
2022/07/31 08:32:24;;;;;;;3.22;1.67;;;25.60;74.60;;;;;;5012166;28;20053;-84
2022/07/31 08:34:50;;;;;;;5.05;2.20;;;25.60;75.20;;;;;;5017445;28;20026;-84
2022/07/31 08:37:19;;;;;;;4.47;1.77;;;25.90;74.60;;;;;;5017816;28;20034;-84
2022/07/31 08:39:49;;;;;;;6.10;1.95;;;26.00;75.30;;;;;;4996732;28;20026;-85
2022/07/31 08:42:15;;;;;;;2.67;1.58;;;25.90;74.10;;;;;;5000250;28;20029;-84
2022/07/31 08:44:42;;;;;;;4.25;1.77;;;26.10;73.20;;;;;;5014955;28;20045;-84
2022/07/31 08:47:10;;;;;;;3.65;1.88;;;26.30;72.50;;;;;;5012016;28;20057;-85
2022/07/31 08:49:42;;;;;;;6.25;2.00;;;26.50;72.90;;;;;;5012211;28;20022;-82
2022/07/31 08:52:09;;;;;;;4.82;2.17;;;26.60;71.50;;;;;;4993393;28;20088;-82
2022/07/31 08:54:36;;;;;;;5.28;2.00;;;26.70;72.40;;;;;;5008452;28;20018;-83
2022/07/31 08:57:03;;;;;;;4.10;2.13;;;26.60;74.00;;;;;;5015445;28;20026;-82
2022/07/31 08:59:29;;;;;;;4.07;2.10;;;;;;;;;;4997482;28;20069;-84
2022/07/31 09:01:58;;;;;;;4.28;1.67;;;;;;;;;;5009830;28;20030;-83
2022/07/31 09:04:24;;;;;;;6.07;1.55;;;26.60;72.20;;;;;;5016722;28;20686;-83
2022/07/31 09:06:50;;;;;;;4.93;1.70;;;;;;;;;;4999369;28;20045;-84
2022/07/31 09:09:17;;;;;;;3.05;1.80;;;;;;;;;;4997482;28;20480;-84
2022/07/31 09:11:47;;;;;;;5.63;1.88;;;26.90;72.20;;;;;;5019303;28;20029;-86
2022/07/31 09:14:14;;;;;;;2.63;1.58;;;27.10;71.40;;;;;;5012569;28;20093;-83
2022/07/31 09:16:46;;;;;;;2.83;1.83;;;27.40;71.10;;;;;;5015806;28;20034;-84
2022/07/31 09:19:13;;;;;;;5.72;2.05;;;27.60;70.70;;;;;;4995606;28;20033;-84
2022/07/31 09:21:45;;;;;;;4.47;1.90;;;27.60;70.40;;;;;;5020826;28;20069;-84
2022/07/31 09:24:13;;;;;;;5.47;1.80;;;27.70;70.20;;;;;;5010145;28;20065;-83
2022/07/31 09:26:39;;;;;;;3.83;1.73;;;27.80;69.80;;;;;;5013888;28;20078;-83
2022/07/31 09:29:10;;;;;;;4.47;1.80;;;27.90;70.70;;;;;;5012050;28;20030;-85
2022/07/31 09:31:37;;;;;;;3.80;2.00;;;27.90;69.30;;;;;;5015713;28;20041;-86
2022/07/31 09:34:03;;;;;;;5.88;2.00;;;;;;;;;;4996316;28;20451;-85
2022/07/31 09:36:32;;;;;;;4.45;1.92;;;28.20;68.60;;;;;;5014947;28;20059;-83
2022/07/31 09:38:58;;;;;;;5.55;2.20;;;;;;;;;;5016493;28;20510;-84
2022/07/31 09:41:24;;;;;;;7.45;2.42;;;;;;;;;;5013096;28;20373;-85
2022/07/31 09:44:08;;;;;;;3.20;1.85;;;28.50;67.20;;;;;;5001541;28;20042;-83
2022/07/31 09:46:42;;;;;;;4.15;1.60;;;28.50;67.40;;;;;;4999408;28;20060;-85
2022/07/31 09:49:08;;;;;;;5.68;2.03;;;;;;;;;;4994278;28;20033;-83
2022/07/31 09:51:41;;;;;;;5.20;2.05;;;27.00;65.40;;;;;;5014887;28;20029;-83
2022/07/31 09:54:19;;;;;;;3.92;1.90;;;28.70;67.20;;;;;;5020812;28;20026;-84
2022/07/31 09:56:48;;;;;;;3.83;1.73;;;;;;;;;;5019387;28;20030;-86
2022/07/31 09:59:14;;;;;;;7.93;2.20;;;;;;;;;;5014525;28;20072;-84
2022/07/31 10:01:41;;;;;;;3.72;1.60;;;28.80;65.70;;;;;;5019919;28;20112;-85
2022/07/31 10:04:09;;;;;;;3.67;1.50;;;28.90;65.80;;;;;;5000128;28;20034;-84
2022/07/31 10:06:36;;;;;;;2.75;1.83;;;29.10;65.20;;;;;;5018599;28;20040;-85
2022/07/31 10:09:05;;;;;;;4.28;2.42;;;29.10;64.70;;;;;;5004478;28;20068;-83
2022/07/31 10:11:32;;;;;;;5.10;2.05;;;29.40;63.70;;;;;;5015359;28;20391;-82
2022/07/31 10:14:03;;;;;;;4.00;1.90;;;29.30;64.30;;;;;;5020180;28;20045;-84
2022/07/31 10:16:35;;;;;;;2.88;1.63;;;29.70;63.00;;;;;;5018141;28;20036;-84
2022/07/31 10:19:02;;;;;;;2.50;1.42;;;29.60;63.30;;;;;;5002891;28;20030;-83
2022/07/31 10:21:41;;;;;;;8.15;2.25;;;29.70;63.40;;;;;;5017312;28;20095;-82
2022/07/31 10:24:09;;;;;;;4.43;1.92;;;29.90;63.80;;;;;;5017522;28;20025;-84
2022/07/31 10:26:35;;;;;;;3.47;1.73;;;;;;;;;;5012943;28;20034;-85
2022/07/31 10:29:01;;;;;;;5.25;1.67;;;29.90;61.50;;;;;;5016931;28;20520;-85
2022/07/31 10:31:29;;;;;;;5.93;2.10;;;;;;;;;;5021519;28;20068;-83
2022/07/31 10:33:59;;;;;;;2.85;1.48;;;;;;;;;;5012096;28;20014;-82
2022/07/31 10:36:31;;;;;;;3.28;1.95;;;29.80;62.30;;;;;;5011591;28;20034;-85
2022/07/31 10:39:07;;;;;;;3.88;2.00;;;29.70;63.10;;;;;;4989816;28;20098;-83
2022/07/31 10:41:48;;;;;;;3.47;1.63;;;29.60;63.50;;;;;;5020028;28;20053;-83
2022/07/31 10:44:35;;;;;;;6.25;1.67;;;29.90;61.40;;;;;;5011959;28;20029;-82
2022/07/31 10:47:12;;;;;;;4.47;1.70;;;30.00;61.60;;;;;;5011915;28;20026;-83
2022/07/31 10:49:47;;;;;;;5.45;1.70;;;30.00;62.00;;;;;;5012680;28;20034;-83
2022/07/31 10:52:31;;;;;;;3.90;1.80;;;30.10;61.80;;;;;;5007271;28;20034;-85
2022/07/31 10:55:00;;;;;;;2.63;1.50;;;30.10;61.10;;;;;;5018705;28;20048;-84
2022/07/31 10:57:34;;;;;;;4.22;1.55;;;30.10;62.80;;;;;;5010624;28;20034;-84
2022/07/31 11:00:19;;;;;;;5.13;2.70;;;30.20;61.60;;;;;;5009206;28;20072;-85
2022/07/31 11:02:46;;;;;;;3.55;2.33;;;30.30;61.20;;;;;;5004169;28;20025;-84
2022/07/31 11:05:22;;;;;;;2.47;1.52;;;30.20;62.10;;;;;;5006922;28;20029;-84
2022/07/31 11:08:04;;;;;;;4.90;1.60;;;30.70;60.50;;;;;;5005141;28;20469;-83
2022/07/31 11:10:32;;;;;;;2.90;1.58;;;;;;;;;;4999121;28;20037;-85
2022/07/31 11:13:06;;;;;;;4.80;1.60;;;30.80;60.10;;;;;;5023498;28;20041;-84
2022/07/31 11:15:33;;;;;;;5.18;1.60;;;30.80;59.60;;;;;;5012539;28;20127;-83
2022/07/31 11:18:17;;;;;;;2.10;1.50;;;30.80;60.20;;;;;;4991677;28;20052;-82
2022/07/31 11:20:46;;;;;;;4.45;2.00;;;30.70;58.90;;;;;;5006575;28;20030;-84
2022/07/31 11:23:15;;;;;;;3.25;1.60;;;30.80;59.40;;;;;;4993241;28;20034;-85
2022/07/31 11:25:43;;;;;;;3.33;1.45;;;30.70;59.70;;;;;;5002371;28;20543;-83
2022/07/31 11:28:23;;;;;;;5.78;1.52;;;30.80;59.90;;;;;;5003712;28;20061;-84
2022/07/31 11:30:59;;;;;;;3.50;1.45;;;30.80;59.70;;;;;;5010932;28;20018;-84
2022/07/31 11:33:29;;;;;;;3.28;1.88;;;31.00;59.90;;;;;;5013161;28;20018;-84
2022/07/31 11:36:25;;;;;;;4.78;1.50;;;30.60;60.00;;;;;;4992235;28;20037;-84
2022/07/31 11:38:56;;;;;;;6.15;1.95;;;30.70;58.40;;;;;;4976450;28;20506;-84
2022/07/31 11:41:29;;;;;;;3.90;1.60;;;30.70;59.10;;;;;;5015419;28;20026;-84
2022/07/31 11:43:56;;;;;;;2.63;1.58;;;;;;;;;;5027799;23;20066;-80
2022/07/31 11:46:32;;;;;;;3.58;1.30;;;30.80;58.80;;;;;;5003950;28;20061;-78
2022/07/31 11:48:58;;;;;;;3.58;1.48;;;30.80;59.90;;;;;;5018011;28;20031;-81
2022/07/31 11:51:26;;;;;;;3.38;1.63;;;30.90;59.20;;;;;;5015760;28;20056;-81
2022/07/31 11:53:54;;;;;;;2.22;1.45;;;30.90;58.00;;;;;;5020784;28;20045;-80
2022/07/31 11:56:21;;;;;;;5.50;3.63;;;30.80;57.50;;;;;;5021605;28;20049;-80
2022/07/31 11:58:51;;;;;;;2.40;1.40;;;30.80;56.90;;;;;;5002180;28;20428;-82
2022/07/31 12:01:17;;;;;;;2.03;1.50;;;30.70;57.60;;;;;;5015009;28;20026;-80
2022/07/31 12:03:44;;;;;;;3.58;1.45;;;30.80;57.50;;;;;;5018975;28;20334;-79
2022/07/31 12:06:11;;;;;;;5.13;1.40;;;30.80;57.40;;;;;;4997424;28;20069;-80
2022/07/31 12:08:38;;;;;;;6.10;1.50;;;30.80;56.10;;;;;;5007554;28;20045;-80
2022/07/31 12:11:08;;;;;;;2.92;1.50;;;30.80;56.40;;;;;;5022357;28;20042;-80
2022/07/31 12:13:34;;;;;;;3.75;1.58;;;30.90;56.60;;;;;;5004360;28;20053;-80
2022/07/31 12:16:08;;;;;;;2.80;1.23;;;31.00;57.20;;;;;;4996058;28;20026;-79
2022/07/31 12:18:57;;;;;;;5.55;1.63;;;31.00;55.20;;;;;;5016778;28;20026;-82
2022/07/31 12:21:34;;;;;;;2.30;1.40;;;31.00;55.20;;;;;;5014227;28;20077;-81
2022/07/31 12:24:00;;;;;;;2.50;1.40;;;30.90;55.20;;;;;;4997182;28;20041;-82
2022/07/31 12:26:29;;;;;;;4.97;1.80;;;31.10;54.90;;;;;;5018341;28;20455;-80
2022/07/31 12:29:00;;;;;;;2.45;1.10;;;31.10;53.60;;;;;;4995042;28;20041;-84
2022/07/31 12:31:28;;;;;;;3.55;1.58;;;31.10;53.90;;;;;;5012855;28;20027;-83
2022/07/31 12:33:53;;;;;;;1.90;1.30;;;31.20;54.20;;;;;;5003124;28;20503;-83
2022/07/31 12:36:20;;;;;;;3.40;1.50;;;31.20;55.40;;;;;;5015932;28;20089;-81
2022/07/31 12:38:57;;;;;;;4.25;1.98;;;31.30;55.30;;;;;;5017721;28;20030;-84
2022/07/31 12:41:22;;;;;;;2.58;1.35;;;31.30;55.50;;;;;;4997477;28;20029;-79
2022/07/31 12:43:49;;;;;;;3.63;1.60;;;31.30;55.90;;;;;;5013316;28;20033;-80
2022/07/31 12:46:15;;;;;;;2.78;1.40;;;31.40;55.30;;;;;;5012078;28;20114;-81
2022/07/31 12:48:41;;;;;;;3.00;1.30;;;31.30;54.60;;;;;;5013946;28;20283;-82
2022/07/31 12:51:06;;;;;;;3.15;1.90;;;31.30;54.90;;;;;;4998554;28;20044;-82
2022/07/31 12:53:32;;;;;;;3.75;1.42;;;31.30;55.50;;;;;;5015561;28;20045;-81
2022/07/31 12:55:58;;;;;;;2.80;1.50;;;31.40;54.90;;;;;;5000076;28;20057;-81
2022/07/31 12:58:24;;;;;;;4.18;1.50;;;31.40;55.10;;;;;;5019407;28;20028;-82
2022/07/31 13:00:50;;;;;;;2.85;1.48;;;31.50;55.40;;;;;;4996021;28;20018;-81
2022/07/31 13:03:17;;;;;;;3.15;1.60;;;31.40;54.90;;;;;;4999621;28;20048;-82
2022/07/31 13:05:42;;;;;;;3.83;2.22;;;31.50;55.10;;;;;;5018291;28;20504;-81
2022/07/31 13:08:08;;;;;;;3.55;1.55;;;31.50;54.70;;;;;;5020250;28;20030;-82
2022/07/31 13:10:34;;;;;;;4.43;1.38;;;31.40;54.80;;;;;;5017202;28;20119;-81
2022/07/31 13:13:00;;;;;;;1.77;1.17;;;31.50;55.30;;;;;;5021582;28;20422;-80
2022/07/31 13:15:29;;;;;;;2.33;1.33;;;31.60;54.80;;;;;;5016080;28;20115;-82
2022/07/31 13:17:56;;;;;;;2.20;1.30;;;31.60;55.00;;;;;;5012842;28;20521;-79